sensor_id;sensor_type;location;lat;lon;timestamp;P1;durP1;ratioP1;P2;durP2;ratioP2
73693;SDS011;61997;53.974;11.670;2022-10-16T00:01:03;40.83;;;23.60;;
73693;SDS011;61997;53.974;11.670;2022-10-16T00:03:30;40.25;;;24.60;;
73693;SDS011;61997;53.974;11.670;2022-10-16T00:05:58;44.35;;;24.63;;
73693;SDS011;61997;53.974;11.670;2022-10-16T00:08:24;43.70;;;24.70;;
73693;SDS011;61997;53.974;11.670;2022-10-16T00:10:49;45.75;;;24.05;;
73693;SDS011;61997;53.974;11.670;2022-10-16T00:13:15;40.15;;;23.52;;
73693;SDS011;61997;53.974;11.670;2022-10-16T00:15:42;43.10;;;24.67;;
73693;SDS011;61997;53.974;11.670;2022-10-16T00:18:09;40.03;;;23.42;;
73693;SDS011;61997;53.974;11.670;2022-10-16T00:20:35;41.28;;;22.85;;
73693;SDS011;61997;53.974;11.670;2022-10-16T00:23:02;42.20;;;23.30;;
73693;SDS011;61997;53.974;11.670;2022-10-16T00:25:28;43.72;;;23.08;;
73693;SDS011;61997;53.974;11.670;2022-10-16T00:27:54;40.75;;;23.40;;
73693;SDS011;61997;53.974;11.670;2022-10-16T00:30:19;42.45;;;23.40;;
73693;SDS011;61997;53.974;11.670;2022-10-16T00:32:44;38.30;;;22.55;;
73693;SDS011;61997;53.974;11.670;2022-10-16T00:35:10;39.85;;;22.15;;
73693;SDS011;61997;53.974;11.670;2022-10-16T00:37:35;36.72;;;21.73;;
73693;SDS011;61997;53.974;11.670;2022-10-16T00:40:01;39.15;;;22.55;;
73693;SDS011;61997;53.974;11.670;2022-10-16T00:42:26;35.50;;;21.05;;
73693;SDS011;61997;53.974;11.670;2022-10-16T00:44:53;36.97;;;21.38;;
73693;SDS011;61997;53.974;11.670;2022-10-16T00:47:23;34.08;;;21.15;;
73693;SDS011;61997;53.974;11.670;2022-10-16T00:49:50;36.40;;;21.95;;
73693;SDS011;61997;53.974;11.670;2022-10-16T00:52:17;36.22;;;20.60;;
73693;SDS011;61997;53.974;11.670;2022-10-16T00:54:42;37.22;;;21.58;;
73693;SDS011;61997;53.974;11.670;2022-10-16T00:57:08;34.58;;;20.27;;
73693;SDS011;61997;53.974;11.670;2022-10-16T00:59:40;35.03;;;20.35;;
73693;SDS011;61997;53.974;11.670;2022-10-16T01:02:07;36.13;;;19.88;;
73693;SDS011;61997;53.974;11.670;2022-10-16T01:04:35;34.30;;;20.10;;
73693;SDS011;61997;53.974;11.670;2022-10-16T01:07:14;34.25;;;18.80;;
73693;SDS011;61997;53.974;11.670;2022-10-16T01:12:48;31.33;;;19.00;;
73693;SDS011;61997;53.974;11.670;2022-10-16T01:15:26;33.30;;;19.55;;
73693;SDS011;61997;53.974;11.670;2022-10-16T01:21:01;31.25;;;18.00;;
73693;SDS011;61997;53.974;11.670;2022-10-16T01:29:05;33.78;;;19.77;;
73693;SDS011;61997;53.974;11.670;2022-10-16T01:31:44;35.78;;;18.38;;
73693;SDS011;61997;53.974;11.670;2022-10-16T01:34:15;31.10;;;18.35;;
73693;SDS011;61997;53.974;11.670;2022-10-16T01:36:56;28.75;;;16.98;;
73693;SDS011;61997;53.974;11.670;2022-10-16T01:39:29;29.00;;;17.80;;
73693;SDS011;61997;53.974;11.670;2022-10-16T01:41:58;31.73;;;16.83;;
73693;SDS011;61997;53.974;11.670;2022-10-16T01:44:27;28.38;;;16.08;;
73693;SDS011;61997;53.974;11.670;2022-10-16T01:46:54;25.10;;;15.88;;
73693;SDS011;61997;53.974;11.670;2022-10-16T01:49:21;28.52;;;15.77;;
73693;SDS011;61997;53.974;11.670;2022-10-16T01:51:49;28.30;;;16.55;;
73693;SDS011;61997;53.974;11.670;2022-10-16T01:54:17;27.15;;;15.35;;
73693;SDS011;61997;53.974;11.670;2022-10-16T01:56:44;28.02;;;16.75;;
73693;SDS011;61997;53.974;11.670;2022-10-16T01:59:14;25.67;;;15.23;;
73693;SDS011;61997;53.974;11.670;2022-10-16T02:02:04;25.23;;;15.50;;
73693;SDS011;61997;53.974;11.670;2022-10-16T02:04:31;25.25;;;15.98;;
73693;SDS011;61997;53.974;11.670;2022-10-16T02:09:41;26.83;;;15.17;;
73693;SDS011;61997;53.974;11.670;2022-10-16T02:12:26;24.77;;;15.02;;
73693;SDS011;61997;53.974;11.670;2022-10-16T02:14:53;27.05;;;16.23;;
73693;SDS011;61997;53.974;11.670;2022-10-16T02:17:18;26.23;;;14.70;;
73693;SDS011;61997;53.974;11.670;2022-10-16T02:19:44;24.67;;;15.90;;
73693;SDS011;61997;53.974;11.670;2022-10-16T02:22:15;26.67;;;14.45;;
73693;SDS011;61997;53.974;11.670;2022-10-16T02:25:00;23.40;;;13.98;;
73693;SDS011;61997;53.974;11.670;2022-10-16T02:27:42;22.73;;;14.23;;
73693;SDS011;61997;53.974;11.670;2022-10-16T02:30:21;24.10;;;13.30;;
73693;SDS011;61997;53.974;11.670;2022-10-16T02:32:52;23.15;;;13.80;;
73693;SDS011;61997;53.974;11.670;2022-10-16T02:35:19;22.90;;;14.55;;
73693;SDS011;61997;53.974;11.670;2022-10-16T02:37:46;22.35;;;12.60;;
73693;SDS011;61997;53.974;11.670;2022-10-16T02:40:13;22.85;;;13.10;;
73693;SDS011;61997;53.974;11.670;2022-10-16T02:42:39;23.95;;;13.60;;
73693;SDS011;61997;53.974;11.670;2022-10-16T02:45:06;22.52;;;13.50;;
73693;SDS011;61997;53.974;11.670;2022-10-16T02:47:32;23.25;;;13.57;;
73693;SDS011;61997;53.974;11.670;2022-10-16T02:49:57;21.02;;;13.00;;
73693;SDS011;61997;53.974;11.670;2022-10-16T02:52:23;23.25;;;13.20;;
73693;SDS011;61997;53.974;11.670;2022-10-16T02:54:48;21.38;;;12.35;;
73693;SDS011;61997;53.974;11.670;2022-10-16T02:57:13;23.25;;;12.98;;
73693;SDS011;61997;53.974;11.670;2022-10-16T02:59:39;22.48;;;12.02;;
73693;SDS011;61997;53.974;11.670;2022-10-16T03:02:04;20.42;;;12.27;;
73693;SDS011;61997;53.974;11.670;2022-10-16T03:04:29;17.35;;;12.25;;
73693;SDS011;61997;53.974;11.670;2022-10-16T03:06:55;18.92;;;12.07;;
73693;SDS011;61997;53.974;11.670;2022-10-16T03:09:20;21.92;;;12.85;;
73693;SDS011;61997;53.974;11.670;2022-10-16T03:11:46;19.17;;;11.80;;
73693;SDS011;61997;53.974;11.670;2022-10-16T03:14:11;19.85;;;11.02;;
73693;SDS011;61997;53.974;11.670;2022-10-16T03:16:36;21.27;;;12.25;;
73693;SDS011;61997;53.974;11.670;2022-10-16T03:19:02;19.35;;;11.95;;
73693;SDS011;61997;53.974;11.670;2022-10-16T03:21:27;19.40;;;11.10;;
73693;SDS011;61997;53.974;11.670;2022-10-16T03:23:52;19.10;;;11.32;;
73693;SDS011;61997;53.974;11.670;2022-10-16T03:26:18;20.05;;;11.20;;
73693;SDS011;61997;53.974;11.670;2022-10-16T03:28:43;17.77;;;10.70;;
73693;SDS011;61997;53.974;11.670;2022-10-16T03:31:09;19.80;;;11.25;;
73693;SDS011;61997;53.974;11.670;2022-10-16T03:33:34;18.92;;;10.85;;
73693;SDS011;61997;53.974;11.670;2022-10-16T03:35:59;16.23;;;10.90;;
73693;SDS011;61997;53.974;11.670;2022-10-16T03:38:25;17.17;;;10.90;;
73693;SDS011;61997;53.974;11.670;2022-10-16T03:40:50;16.92;;;9.93;;
73693;SDS011;61997;53.974;11.670;2022-10-16T03:43:16;14.95;;;9.75;;
73693;SDS011;61997;53.974;11.670;2022-10-16T03:45:41;16.55;;;10.18;;
73693;SDS011;61997;53.974;11.670;2022-10-16T03:48:07;15.43;;;10.18;;
73693;SDS011;61997;53.974;11.670;2022-10-16T03:50:32;16.13;;;10.15;;
73693;SDS011;61997;53.974;11.670;2022-10-16T03:52:57;14.70;;;9.73;;
73693;SDS011;61997;53.974;11.670;2022-10-16T03:55:23;14.38;;;9.13;;
73693;SDS011;61997;53.974;11.670;2022-10-16T03:57:48;16.02;;;9.02;;
73693;SDS011;61997;53.974;11.670;2022-10-16T04:00:13;13.70;;;9.00;;
73693;SDS011;61997;53.974;11.670;2022-10-16T04:02:39;14.95;;;9.05;;
73693;SDS011;61997;53.974;11.670;2022-10-16T04:05:04;16.08;;;9.27;;
73693;SDS011;61997;53.974;11.670;2022-10-16T04:07:30;15.23;;;9.15;;
73693;SDS011;61997;53.974;11.670;2022-10-16T04:09:55;12.75;;;8.70;;
73693;SDS011;61997;53.974;11.670;2022-10-16T04:12:23;15.18;;;8.93;;
73693;SDS011;61997;53.974;11.670;2022-10-16T04:14:49;12.55;;;8.20;;
73693;SDS011;61997;53.974;11.670;2022-10-16T04:17:14;13.60;;;8.15;;
73693;SDS011;61997;53.974;11.670;2022-10-16T04:19:39;13.32;;;8.55;;
73693;SDS011;61997;53.974;11.670;2022-10-16T04:22:05;12.40;;;8.15;;
73693;SDS011;61997;53.974;11.670;2022-10-16T04:24:30;13.63;;;8.10;;
73693;SDS011;61997;53.974;11.670;2022-10-16T04:26:55;13.80;;;7.85;;
73693;SDS011;61997;53.974;11.670;2022-10-16T04:29:21;11.40;;;7.20;;
73693;SDS011;61997;53.974;11.670;2022-10-16T04:31:46;12.07;;;8.10;;
73693;SDS011;61997;53.974;11.670;2022-10-16T04:34:12;12.35;;;7.68;;
73693;SDS011;61997;53.974;11.670;2022-10-16T04:36:37;12.35;;;7.43;;
73693;SDS011;61997;53.974;11.670;2022-10-16T04:39:02;12.15;;;7.93;;
73693;SDS011;61997;53.974;11.670;2022-10-16T04:41:28;11.15;;;7.20;;
73693;SDS011;61997;53.974;11.670;2022-10-16T04:43:53;12.63;;;7.43;;
73693;SDS011;61997;53.974;11.670;2022-10-16T04:46:19;11.48;;;6.97;;
73693;SDS011;61997;53.974;11.670;2022-10-16T04:48:44;12.98;;;7.45;;
73693;SDS011;61997;53.974;11.670;2022-10-16T04:51:09;12.25;;;7.55;;
73693;SDS011;61997;53.974;11.670;2022-10-16T04:53:35;11.57;;;6.70;;
73693;SDS011;61997;53.974;11.670;2022-10-16T04:56:01;12.02;;;7.20;;
73693;SDS011;61997;53.974;11.670;2022-10-16T04:58:27;10.52;;;6.60;;
73693;SDS011;61997;53.974;11.670;2022-10-16T05:00:52;11.10;;;7.00;;
73693;SDS011;61997;53.974;11.670;2022-10-16T05:03:18;11.52;;;6.82;;
73693;SDS011;61997;53.974;11.670;2022-10-16T05:05:43;12.25;;;6.90;;
73693;SDS011;61997;53.974;11.670;2022-10-16T05:08:10;9.23;;;6.15;;
73693;SDS011;61997;53.974;11.670;2022-10-16T05:10:36;10.45;;;6.30;;
73693;SDS011;61997;53.974;11.670;2022-10-16T05:13:01;9.98;;;6.55;;
73693;SDS011;61997;53.974;11.670;2022-10-16T05:15:27;10.77;;;7.03;;
73693;SDS011;61997;53.974;11.670;2022-10-16T05:17:54;9.98;;;6.10;;
73693;SDS011;61997;53.974;11.670;2022-10-16T05:20:19;10.18;;;6.05;;
73693;SDS011;61997;53.974;11.670;2022-10-16T05:22:45;9.80;;;5.90;;
73693;SDS011;61997;53.974;11.670;2022-10-16T05:25:10;10.63;;;6.10;;
73693;SDS011;61997;53.974;11.670;2022-10-16T05:27:36;9.25;;;5.97;;
73693;SDS011;61997;53.974;11.670;2022-10-16T05:30:01;9.40;;;5.72;;
73693;SDS011;61997;53.974;11.670;2022-10-16T05:32:27;9.43;;;5.65;;
73693;SDS011;61997;53.974;11.670;2022-10-16T05:34:52;10.35;;;6.00;;
73693;SDS011;61997;53.974;11.670;2022-10-16T05:37:18;8.82;;;5.22;;
73693;SDS011;61997;53.974;11.670;2022-10-16T05:39:43;9.10;;;6.00;;
73693;SDS011;61997;53.974;11.670;2022-10-16T05:42:09;9.15;;;5.70;;
73693;SDS011;61997;53.974;11.670;2022-10-16T05:44:34;8.88;;;5.28;;
73693;SDS011;61997;53.974;11.670;2022-10-16T05:46:59;8.00;;;5.63;;
73693;SDS011;61997;53.974;11.670;2022-10-16T05:49:25;8.63;;;5.30;;
73693;SDS011;61997;53.974;11.670;2022-10-16T05:51:50;9.80;;;5.47;;
73693;SDS011;61997;53.974;11.670;2022-10-16T05:54:16;9.95;;;5.68;;
73693;SDS011;61997;53.974;11.670;2022-10-16T05:56:42;7.32;;;4.60;;
73693;SDS011;61997;53.974;11.670;2022-10-16T05:59:07;7.68;;;4.72;;
73693;SDS011;61997;53.974;11.670;2022-10-16T06:01:33;9.05;;;5.30;;
73693;SDS011;61997;53.974;11.670;2022-10-16T06:03:58;8.27;;;4.82;;
73693;SDS011;61997;53.974;11.670;2022-10-16T06:06:24;9.35;;;5.00;;
73693;SDS011;61997;53.974;11.670;2022-10-16T06:08:51;10.13;;;5.15;;
73693;SDS011;61997;53.974;11.670;2022-10-16T06:11:19;9.02;;;4.45;;
73693;SDS011;61997;53.974;11.670;2022-10-16T06:13:50;11.10;;;4.90;;
73693;SDS011;61997;53.974;11.670;2022-10-16T06:16:19;7.57;;;4.70;;
73693;SDS011;61997;53.974;11.670;2022-10-16T06:18:45;7.55;;;4.35;;
73693;SDS011;61997;53.974;11.670;2022-10-16T06:21:11;7.28;;;4.47;;
73693;SDS011;61997;53.974;11.670;2022-10-16T06:23:39;9.50;;;5.00;;
73693;SDS011;61997;53.974;11.670;2022-10-16T06:26:05;7.38;;;4.88;;
73693;SDS011;61997;53.974;11.670;2022-10-16T06:28:32;8.93;;;5.00;;
73693;SDS011;61997;53.974;11.670;2022-10-16T06:31:01;7.63;;;4.80;;
73693;SDS011;61997;53.974;11.670;2022-10-16T06:33:27;7.13;;;4.03;;
73693;SDS011;61997;53.974;11.670;2022-10-16T06:35:53;8.98;;;5.47;;
73693;SDS011;61997;53.974;11.670;2022-10-16T06:38:18;7.00;;;4.10;;
73693;SDS011;61997;53.974;11.670;2022-10-16T06:40:43;7.97;;;4.18;;
73693;SDS011;61997;53.974;11.670;2022-10-16T06:43:09;7.13;;;4.50;;
73693;SDS011;61997;53.974;11.670;2022-10-16T06:45:34;6.93;;;3.95;;
73693;SDS011;61997;53.974;11.670;2022-10-16T06:47:59;7.13;;;4.13;;
73693;SDS011;61997;53.974;11.670;2022-10-16T06:50:25;6.15;;;3.83;;
73693;SDS011;61997;53.974;11.670;2022-10-16T06:52:50;7.55;;;3.97;;
73693;SDS011;61997;53.974;11.670;2022-10-16T06:55:15;6.60;;;4.00;;
73693;SDS011;61997;53.974;11.670;2022-10-16T06:57:42;6.03;;;3.17;;
73693;SDS011;61997;53.974;11.670;2022-10-16T07:00:08;7.38;;;3.80;;
73693;SDS011;61997;53.974;11.670;2022-10-16T07:02:33;6.22;;;4.05;;
73693;SDS011;61997;53.974;11.670;2022-10-16T07:04:59;6.70;;;3.67;;
73693;SDS011;61997;53.974;11.670;2022-10-16T07:07:24;7.63;;;3.95;;
73693;SDS011;61997;53.974;11.670;2022-10-16T07:09:51;6.03;;;4.10;;
73693;SDS011;61997;53.974;11.670;2022-10-16T07:12:16;5.40;;;3.17;;
73693;SDS011;61997;53.974;11.670;2022-10-16T07:14:42;6.15;;;3.85;;
73693;SDS011;61997;53.974;11.670;2022-10-16T07:17:07;7.25;;;3.63;;
73693;SDS011;61997;53.974;11.670;2022-10-16T07:19:34;6.93;;;3.35;;
73693;SDS011;61997;53.974;11.670;2022-10-16T07:21:59;5.60;;;3.58;;
73693;SDS011;61997;53.974;11.670;2022-10-16T07:24:25;6.35;;;3.78;;
73693;SDS011;61997;53.974;11.670;2022-10-16T07:26:51;5.35;;;3.78;;
73693;SDS011;61997;53.974;11.670;2022-10-16T07:29:17;5.20;;;3.42;;
73693;SDS011;61997;53.974;11.670;2022-10-16T07:31:44;6.93;;;3.67;;
73693;SDS011;61997;53.974;11.670;2022-10-16T07:34:10;6.28;;;3.95;;
73693;SDS011;61997;53.974;11.670;2022-10-16T07:36:37;5.30;;;3.70;;
73693;SDS011;61997;53.974;11.670;2022-10-16T07:39:03;4.28;;;3.17;;
73693;SDS011;61997;53.974;11.670;2022-10-16T07:41:29;6.07;;;3.78;;
73693;SDS011;61997;53.974;11.670;2022-10-16T07:43:55;5.40;;;3.20;;
73693;SDS011;61997;53.974;11.670;2022-10-16T07:46:25;4.97;;;3.20;;
73693;SDS011;61997;53.974;11.670;2022-10-16T07:48:51;5.22;;;3.22;;
73693;SDS011;61997;53.974;11.670;2022-10-16T07:51:18;4.63;;;2.88;;
73693;SDS011;61997;53.974;11.670;2022-10-16T07:53:44;5.93;;;2.97;;
73693;SDS011;61997;53.974;11.670;2022-10-16T07:56:10;4.68;;;3.00;;
73693;SDS011;61997;53.974;11.670;2022-10-16T07:58:36;5.35;;;3.10;;
73693;SDS011;61997;53.974;11.670;2022-10-16T08:01:06;4.78;;;3.53;;
73693;SDS011;61997;53.974;11.670;2022-10-16T08:03:33;4.95;;;3.20;;
73693;SDS011;61997;53.974;11.670;2022-10-16T08:05:58;3.95;;;2.90;;
73693;SDS011;61997;53.974;11.670;2022-10-16T08:08:24;4.80;;;3.08;;
73693;SDS011;61997;53.974;11.670;2022-10-16T08:10:50;4.75;;;2.83;;
73693;SDS011;61997;53.974;11.670;2022-10-16T08:13:15;5.53;;;3.20;;
73693;SDS011;61997;53.974;11.670;2022-10-16T08:15:44;4.75;;;3.10;;
73693;SDS011;61997;53.974;11.670;2022-10-16T08:20:35;5.35;;;2.88;;
73693;SDS011;61997;53.974;11.670;2022-10-16T08:23:01;5.80;;;3.10;;
73693;SDS011;61997;53.974;11.670;2022-10-16T08:25:26;4.57;;;2.75;;
73693;SDS011;61997;53.974;11.670;2022-10-16T08:27:52;5.47;;;2.90;;
73693;SDS011;61997;53.974;11.670;2022-10-16T08:30:18;5.20;;;3.40;;
73693;SDS011;61997;53.974;11.670;2022-10-16T08:32:44;5.00;;;3.08;;
73693;SDS011;61997;53.974;11.670;2022-10-16T08:35:10;4.63;;;2.80;;
73693;SDS011;61997;53.974;11.670;2022-10-16T08:37:36;4.65;;;2.80;;
73693;SDS011;61997;53.974;11.670;2022-10-16T08:40:02;5.75;;;3.08;;
73693;SDS011;61997;53.974;11.670;2022-10-16T08:43:31;3.20;;;2.35;;
73693;SDS011;61997;53.974;11.670;2022-10-16T08:45:32;4.47;;;2.83;;
73693;SDS011;61997;53.974;11.670;2022-10-16T08:50:49;4.55;;;2.55;;
73693;SDS011;61997;53.974;11.670;2022-10-16T08:53:49;5.50;;;2.75;;
73693;SDS011;61997;53.974;11.670;2022-10-16T08:58:47;6.55;;;3.05;;
73693;SDS011;61997;53.974;11.670;2022-10-16T09:01:14;6.47;;;3.22;;
73693;SDS011;61997;53.974;11.670;2022-10-16T09:06:45;4.95;;;3.40;;
73693;SDS011;61997;53.974;11.670;2022-10-16T09:15:01;4.55;;;2.55;;
73693;SDS011;61997;53.974;11.670;2022-10-16T09:25:30;4.10;;;2.33;;
73693;SDS011;61997;53.974;11.670;2022-10-16T09:27:56;3.83;;;2.70;;
73693;SDS011;61997;53.974;11.670;2022-10-16T09:30:22;5.05;;;2.65;;
73693;SDS011;61997;53.974;11.670;2022-10-16T09:32:50;4.38;;;3.22;;
73693;SDS011;61997;53.974;11.670;2022-10-16T09:35:18;4.95;;;2.83;;
73693;SDS011;61997;53.974;11.670;2022-10-16T09:37:47;6.07;;;2.65;;
73693;SDS011;61997;53.974;11.670;2022-10-16T09:46:07;4.40;;;2.65;;
73693;SDS011;61997;53.974;11.670;2022-10-16T09:48:36;5.53;;;3.17;;
73693;SDS011;61997;53.974;11.670;2022-10-16T09:51:04;5.05;;;2.45;;
73693;SDS011;61997;53.974;11.670;2022-10-16T09:56:06;5.00;;;3.03;;
73693;SDS011;61997;53.974;11.670;2022-10-16T09:58:31;4.55;;;2.60;;
73693;SDS011;61997;53.974;11.670;2022-10-16T10:00:58;4.13;;;2.50;;
73693;SDS011;61997;53.974;11.670;2022-10-16T10:03:44;4.82;;;2.65;;
73693;SDS011;61997;53.974;11.670;2022-10-16T10:06:27;3.72;;;2.42;;
73693;SDS011;61997;53.974;11.670;2022-10-16T10:08:55;5.32;;;2.72;;
73693;SDS011;61997;53.974;11.670;2022-10-16T10:11:40;4.57;;;2.72;;
73693;SDS011;61997;53.974;11.670;2022-10-16T10:14:14;4.20;;;2.20;;
73693;SDS011;61997;53.974;11.670;2022-10-16T10:16:45;4.60;;;2.38;;
73693;SDS011;61997;53.974;11.670;2022-10-16T10:19:15;5.57;;;2.97;;
73693;SDS011;61997;53.974;11.670;2022-10-16T10:21:42;4.88;;;3.30;;
73693;SDS011;61997;53.974;11.670;2022-10-16T10:24:14;4.72;;;2.63;;
73693;SDS011;61997;53.974;11.670;2022-10-16T10:29:28;4.38;;;2.72;;
73693;SDS011;61997;53.974;11.670;2022-10-16T10:38:16;4.57;;;2.55;;
73693;SDS011;61997;53.974;11.670;2022-10-16T10:50:52;4.32;;;2.70;;
73693;SDS011;61997;53.974;11.670;2022-10-16T10:59:30;4.88;;;2.60;;
73693;SDS011;61997;53.974;11.670;2022-10-16T11:02:09;4.78;;;2.70;;
73693;SDS011;61997;53.974;11.670;2022-10-16T11:07:32;4.60;;;2.58;;
73693;SDS011;61997;53.974;11.670;2022-10-16T11:10:02;4.68;;;2.33;;
73693;SDS011;61997;53.974;11.670;2022-10-16T11:12:34;4.88;;;2.83;;
73693;SDS011;61997;53.974;11.670;2022-10-16T11:17:41;3.95;;;2.50;;
73693;SDS011;61997;53.974;11.670;2022-10-16T11:20:42;3.75;;;2.22;;
73693;SDS011;61997;53.974;11.670;2022-10-16T11:25:43;5.00;;;2.70;;
73693;SDS011;61997;53.974;11.670;2022-10-16T11:31:05;4.30;;;2.00;;
73693;SDS011;61997;53.974;11.670;2022-10-16T11:39:19;4.75;;;2.50;;
73693;SDS011;61997;53.974;11.670;2022-10-16T11:41:59;3.22;;;2.05;;
73693;SDS011;61997;53.974;11.670;2022-10-16T11:44:48;3.25;;;1.90;;
73693;SDS011;61997;53.974;11.670;2022-10-16T11:49:59;4.47;;;1.75;;
73693;SDS011;61997;53.974;11.670;2022-10-16T11:52:33;3.45;;;1.90;;
73693;SDS011;61997;53.974;11.670;2022-10-16T11:57:35;3.80;;;1.80;;
73693;SDS011;61997;53.974;11.670;2022-10-16T12:00:21;3.58;;;1.60;;
73693;SDS011;61997;53.974;11.670;2022-10-16T12:05:25;3.72;;;1.58;;
73693;SDS011;61997;53.974;11.670;2022-10-16T12:10:35;2.60;;;1.50;;
73693;SDS011;61997;53.974;11.670;2022-10-16T12:13:02;4.13;;;1.70;;
73693;SDS011;61997;53.974;11.670;2022-10-16T12:15:30;3.53;;;1.60;;
73693;SDS011;61997;53.974;11.670;2022-10-16T12:17:57;2.63;;;1.50;;
73693;SDS011;61997;53.974;11.670;2022-10-16T12:20:27;3.00;;;1.40;;
73693;SDS011;61997;53.974;11.670;2022-10-16T12:23:01;2.55;;;1.25;;
73693;SDS011;61997;53.974;11.670;2022-10-16T12:25:34;2.80;;;1.42;;
73693;SDS011;61997;53.974;11.670;2022-10-16T12:28:05;2.75;;;1.00;;
73693;SDS011;61997;53.974;11.670;2022-10-16T12:30:40;3.78;;;1.35;;
73693;SDS011;61997;53.974;11.670;2022-10-16T12:33:06;3.83;;;1.20;;
73693;SDS011;61997;53.974;11.670;2022-10-16T12:35:45;2.20;;;1.33;;
73693;SDS011;61997;53.974;11.670;2022-10-16T12:38:21;1.83;;;1.10;;
73693;SDS011;61997;53.974;11.670;2022-10-16T12:41:01;1.40;;;0.90;;
73693;SDS011;61997;53.974;11.670;2022-10-16T12:46:39;1.60;;;1.10;;
73693;SDS011;61997;53.974;11.670;2022-10-16T12:49:05;3.47;;;1.10;;
73693;SDS011;61997;53.974;11.670;2022-10-16T12:51:41;1.92;;;1.00;;
73693;SDS011;61997;53.974;11.670;2022-10-16T12:59:53;2.95;;;1.10;;
73693;SDS011;61997;53.974;11.670;2022-10-16T13:10:34;1.60;;;0.90;;
73693;SDS011;61997;53.974;11.670;2022-10-16T13:29:06;1.95;;;1.10;;
73693;SDS011;61997;53.974;11.670;2022-10-16T13:31:32;1.52;;;0.80;;
73693;SDS011;61997;53.974;11.670;2022-10-16T13:33:59;1.23;;;0.80;;
73693;SDS011;61997;53.974;11.670;2022-10-16T13:36:26;2.25;;;0.90;;
73693;SDS011;61997;53.974;11.670;2022-10-16T13:39:15;1.17;;;0.90;;
73693;SDS011;61997;53.974;11.670;2022-10-16T13:44:50;4.22;;;1.10;;
73693;SDS011;61997;53.974;11.670;2022-10-16T13:47:17;1.42;;;0.82;;
73693;SDS011;61997;53.974;11.670;2022-10-16T13:49:44;2.45;;;0.90;;
73693;SDS011;61997;53.974;11.670;2022-10-16T13:52:17;2.47;;;1.00;;
73693;SDS011;61997;53.974;11.670;2022-10-16T13:54:43;1.65;;;1.02;;
73693;SDS011;61997;53.974;11.670;2022-10-16T13:57:12;1.20;;;0.70;;
73693;SDS011;61997;53.974;11.670;2022-10-16T13:59:39;1.80;;;1.00;;
73693;SDS011;61997;53.974;11.670;2022-10-16T14:02:15;1.70;;;0.80;;
73693;SDS011;61997;53.974;11.670;2022-10-16T14:04:45;2.25;;;0.88;;
73693;SDS011;61997;53.974;11.670;2022-10-16T14:07:15;1.30;;;0.80;;
73693;SDS011;61997;53.974;11.670;2022-10-16T14:09:49;1.65;;;0.88;;
73693;SDS011;61997;53.974;11.670;2022-10-16T14:12:15;1.83;;;0.80;;
73693;SDS011;61997;53.974;11.670;2022-10-16T14:14:42;1.30;;;0.80;;
73693;SDS011;61997;53.974;11.670;2022-10-16T14:17:15;1.95;;;0.95;;
73693;SDS011;61997;53.974;11.670;2022-10-16T14:19:45;1.67;;;1.10;;
73693;SDS011;61997;53.974;11.670;2022-10-16T14:25:00;4.00;;;1.27;;
73693;SDS011;61997;53.974;11.670;2022-10-16T14:27:33;1.55;;;0.75;;
73693;SDS011;61997;53.974;11.670;2022-10-16T14:32:59;1.25;;;0.70;;
73693;SDS011;61997;53.974;11.670;2022-10-16T14:35:32;1.20;;;0.70;;
73693;SDS011;61997;53.974;11.670;2022-10-16T14:37:59;2.13;;;0.80;;
73693;SDS011;61997;53.974;11.670;2022-10-16T14:40:32;1.67;;;0.70;;
73693;SDS011;61997;53.974;11.670;2022-10-16T14:43:00;2.92;;;1.00;;
73693;SDS011;61997;53.974;11.670;2022-10-16T14:45:29;2.00;;;0.80;;
73693;SDS011;61997;53.974;11.670;2022-10-16T14:48:00;1.48;;;0.70;;
73693;SDS011;61997;53.974;11.670;2022-10-16T14:50:42;2.33;;;1.02;;
73693;SDS011;61997;53.974;11.670;2022-10-16T14:53:13;1.10;;;0.68;;
73693;SDS011;61997;53.974;11.670;2022-10-16T14:55:40;1.55;;;1.00;;
73693;SDS011;61997;53.974;11.670;2022-10-16T14:58:07;1.42;;;0.85;;
73693;SDS011;61997;53.974;11.670;2022-10-16T15:00:38;1.05;;;0.80;;
73693;SDS011;61997;53.974;11.670;2022-10-16T15:03:03;1.40;;;0.82;;
73693;SDS011;61997;53.974;11.670;2022-10-16T15:05:29;2.08;;;0.82;;
73693;SDS011;61997;53.974;11.670;2022-10-16T15:07:54;2.63;;;0.70;;
73693;SDS011;61997;53.974;11.670;2022-10-16T15:10:21;4.13;;;0.90;;
73693;SDS011;61997;53.974;11.670;2022-10-16T15:12:48;1.95;;;0.85;;
73693;SDS011;61997;53.974;11.670;2022-10-16T15:17:51;1.38;;;0.75;;
73693;SDS011;61997;53.974;11.670;2022-10-16T15:20:29;1.27;;;0.93;;
73693;SDS011;61997;53.974;11.670;2022-10-16T15:22:58;1.65;;;0.80;;
73693;SDS011;61997;53.974;11.670;2022-10-16T15:28:05;1.85;;;0.90;;
73693;SDS011;61997;53.974;11.670;2022-10-16T15:30:31;1.45;;;0.85;;
73693;SDS011;61997;53.974;11.670;2022-10-16T15:32:57;0.95;;;0.55;;
73693;SDS011;61997;53.974;11.670;2022-10-16T15:35:23;1.27;;;0.70;;
73693;SDS011;61997;53.974;11.670;2022-10-16T15:37:48;2.60;;;0.80;;
73693;SDS011;61997;53.974;11.670;2022-10-16T15:40:14;2.00;;;0.90;;
73693;SDS011;61997;53.974;11.670;2022-10-16T15:42:41;1.58;;;0.70;;
73693;SDS011;61997;53.974;11.670;2022-10-16T15:45:06;1.85;;;0.90;;
73693;SDS011;61997;53.974;11.670;2022-10-16T15:47:33;1.60;;;0.80;;
73693;SDS011;61997;53.974;11.670;2022-10-16T15:49:58;0.90;;;0.70;;
73693;SDS011;61997;53.974;11.670;2022-10-16T15:52:24;2.88;;;0.73;;
73693;SDS011;61997;53.974;11.670;2022-10-16T15:54:49;2.13;;;0.60;;
73693;SDS011;61997;53.974;11.670;2022-10-16T15:57:15;1.63;;;0.80;;
73693;SDS011;61997;53.974;11.670;2022-10-16T15:59:40;1.20;;;0.88;;
73693;SDS011;61997;53.974;11.670;2022-10-16T16:02:05;1.70;;;0.85;;
73693;SDS011;61997;53.974;11.670;2022-10-16T16:04:31;1.55;;;0.70;;
73693;SDS011;61997;53.974;11.670;2022-10-16T16:06:56;4.10;;;1.30;;
73693;SDS011;61997;53.974;11.670;2022-10-16T16:09:22;2.22;;;1.05;;
73693;SDS011;61997;53.974;11.670;2022-10-16T16:11:47;1.58;;;0.80;;
73693;SDS011;61997;53.974;11.670;2022-10-16T16:14:14;2.00;;;1.10;;
73693;SDS011;61997;53.974;11.670;2022-10-16T16:16:40;1.83;;;1.00;;
73693;SDS011;61997;53.974;11.670;2022-10-16T16:19:06;3.22;;;1.05;;
73693;SDS011;61997;53.974;11.670;2022-10-16T16:21:32;2.65;;;1.00;;
73693;SDS011;61997;53.974;11.670;2022-10-16T16:23:58;2.22;;;1.13;;
73693;SDS011;61997;53.974;11.670;2022-10-16T16:28:54;1.63;;;1.00;;
73693;SDS011;61997;53.974;11.670;2022-10-16T16:31:20;3.20;;;1.38;;
73693;SDS011;61997;53.974;11.670;2022-10-16T16:33:49;3.20;;;1.20;;
73693;SDS011;61997;53.974;11.670;2022-10-16T16:36:16;2.45;;;0.90;;
73693;SDS011;61997;53.974;11.670;2022-10-16T16:38:42;2.30;;;0.82;;
73693;SDS011;61997;53.974;11.670;2022-10-16T16:43:37;2.00;;;0.85;;
73693;SDS011;61997;53.974;11.670;2022-10-16T16:46:02;1.60;;;0.82;;
73693;SDS011;61997;53.974;11.670;2022-10-16T16:48:28;3.92;;;1.38;;
73693;SDS011;61997;53.974;11.670;2022-10-16T16:50:53;2.85;;;0.80;;
73693;SDS011;61997;53.974;11.670;2022-10-16T16:53:18;2.17;;;1.10;;
73693;SDS011;61997;53.974;11.670;2022-10-16T16:55:44;2.35;;;1.00;;
73693;SDS011;61997;53.974;11.670;2022-10-16T16:58:09;1.75;;;1.20;;
73693;SDS011;61997;53.974;11.670;2022-10-16T17:00:35;2.13;;;0.90;;
73693;SDS011;61997;53.974;11.670;2022-10-16T17:03:00;1.83;;;1.05;;